Time;durP1;ratioP1;P1;durP2;ratioP2;P2;SDS_P1;SDS_P2;PMS_P1;PMS_P2;Temp;Humidity;BMP_temperature;BMP_pressure;BME280_temperature;BME280_humidity;BME280_pressure;Samples;Min_cycle;Max_cycle;Signal;HPM_P1;HPM_P2
2023/01/24 00:01:55;;;;;;;26.60;21.35;;;;;;;3.94;66.95;103728.56;5042087;28;20523;-66
2023/01/24 00:04:21;;;;;;;25.13;20.38;;;;;;;3.96;67.23;103719.31;5052597;28;20044;-65
2023/01/24 00:06:46;;;;;;;25.00;19.55;;;;;;;3.99;66.94;103722.66;5052506;28;20029;-65
2023/01/24 00:09:11;;;;;;;23.77;19.85;;;;;;;4.03;67.24;103718.63;5046128;28;20047;-66
2023/01/24 00:11:36;;;;;;;23.83;18.55;;;;;;;4.06;67.21;103722.97;5035840;28;20037;-65
2023/01/24 00:14:02;;;;;;;24.45;19.13;;;;;;;4.06;67.05;103714.72;5039952;28;20094;-65
2023/01/24 00:16:27;;;;;;;23.60;18.40;;;;;;;4.04;67.01;103712.09;5053332;28;20041;-65
2023/01/24 00:18:52;;;;;;;22.73;18.85;;;;;;;4.05;66.89;103722.09;5050811;28;20052;-66
2023/01/24 00:21:20;;;;;;;22.00;18.23;;;;;;;4.06;67.25;103732.09;5051554;28;20070;-65
2023/01/24 00:23:48;;;;;;;26.25;19.35;;;;;;;4.08;67.00;103719.06;5052467;28;20111;-65
2023/01/24 00:26:15;;;;;;;23.88;20.02;;;;;;;4.11;67.01;103720.66;5052560;28;20033;-65
2023/01/24 00:28:41;;;;;;;23.50;18.55;;;;;;;4.12;66.87;103723.25;5037083;28;20060;-66
2023/01/24 00:31:07;;;;;;;22.90;19.25;;;;;;;4.09;66.44;103712.56;5053353;28;20111;-65
2023/01/24 00:33:33;;;;;;;24.92;20.05;;;;;;;4.05;66.37;103715.72;5053203;28;20041;-65
2023/01/24 00:35:58;;;;;;;23.10;18.67;;;;;;;4.03;66.65;103712.25;5052489;28;20056;-65
2023/01/24 00:38:24;;;;;;;23.17;18.63;;;;;;;4.02;66.84;103708.63;5049348;28;20512;-65
2023/01/24 00:40:50;;;;;;;24.13;18.70;;;;;;;4.06;66.95;103704.59;5052846;28;20121;-66
2023/01/24 00:43:15;;;;;;;25.58;18.77;;;;;;;4.02;66.66;103700.38;5050291;28;20025;-65
2023/01/24 00:45:41;;;;;;;23.42;18.45;;;;;;;4.04;66.70;103695.59;5044781;28;20029;-65
2023/01/24 00:48:08;;;;;;;23.63;19.10;;;;;;;4.06;66.60;103692.75;5051082;28;20017;-65
2023/01/24 00:50:34;;;;;;;24.13;19.55;;;;;;;3.99;65.91;103695.16;5050978;28;20465;-65
2023/01/24 00:53:00;;;;;;;26.05;20.17;;;;;;;3.92;66.69;103691.22;5050664;28;20116;-65
2023/01/24 00:55:25;;;;;;;25.50;18.92;;;;;;;3.91;67.12;103693.13;5050902;28;20032;-65
2023/01/24 00:57:51;;;;;;;25.60;20.20;;;;;;;3.93;67.07;103695.75;5052098;28;20037;-65
2023/01/24 01:00:16;;;;;;;24.80;20.05;;;;;;;3.95;66.98;103696.47;5048285;28;20052;-65
2023/01/24 01:02:42;;;;;;;25.33;20.33;;;;;;;3.97;67.17;103704.56;5050386;28;20086;-66
2023/01/24 01:05:07;;;;;;;24.40;18.70;;;;;;;3.97;66.15;103697.22;5033023;28;20089;-65
2023/01/24 01:07:33;;;;;;;22.83;18.60;;;;;;;3.93;66.59;103693.88;5035982;28;20090;-65
2023/01/24 01:09:58;;;;;;;26.60;19.52;;;;;;;3.93;66.67;103695.75;5036434;28;20441;-65
2023/01/24 01:12:23;;;;;;;23.27;18.83;;;;;;;3.95;66.47;103690.97;5032534;28;20025;-65
2023/01/24 01:14:49;;;;;;;24.48;18.73;;;;;;;3.96;66.57;103687.19;5032862;28;20025;-65
2023/01/24 01:17:15;;;;;;;23.55;18.40;;;;;;;4.00;66.84;103688.66;5048022;28;20044;-65
2023/01/24 01:19:40;;;;;;;22.15;17.35;;;;;;;3.99;66.02;103681.44;5038340;28;20456;-65
2023/01/24 01:22:06;;;;;;;23.13;18.10;;;;;;;3.95;66.47;103682.72;5033400;28;20029;-65
2023/01/24 01:24:31;;;;;;;21.48;17.33;;;;;;;3.94;66.32;103686.47;5048157;28;20048;-66
2023/01/24 01:26:57;;;;;;;20.60;17.50;;;;;;;3.91;66.25;103684.88;5049522;28;20033;-66
2023/01/24 01:29:22;;;;;;;20.60;16.88;;;;;;;3.90;66.38;103685.88;5051153;28;20024;-65
2023/01/24 01:31:47;;;;;;;21.35;16.02;;;;;;;3.90;66.55;103691.38;5050085;28;20414;-65
2023/01/24 01:34:13;;;;;;;22.08;17.10;;;;;;;3.90;66.35;103690.53;5051337;28;20095;-65
2023/01/24 01:36:38;;;;;;;22.17;17.73;;;;;;;3.90;66.58;103698.75;5048619;28;20805;-65
2023/01/24 01:39:03;;;;;;;22.45;17.45;;;;;;;3.87;66.67;103696.28;5043708;28;20046;-66
2023/01/24 01:41:29;;;;;;;21.05;16.58;;;;;;;3.90;66.62;103701.50;5042902;28;20045;-66
2023/01/24 01:46:49;;;;;;;23.02;16.80;;;;;;;3.97;66.81;103691.72;5049832;28;20102;-65
2023/01/24 01:49:24;;;;;;;23.15;17.83;;;;;;;4.01;66.65;103687.66;5050464;28;20043;-66
2023/01/24 01:51:52;;;;;;;23.58;17.83;;;;;;;3.99;66.82;103692.41;5048490;28;20028;-65
2023/01/24 01:54:21;;;;;;;22.00;17.17;;;;;;;3.96;66.34;103687.19;5050477;28;20033;-65
2023/01/24 01:56:58;;;;;;;23.08;17.60;;;;;;;4.00;67.06;103691.41;5033621;28;20040;-65
2023/01/24 01:59:38;;;;;;;22.20;17.75;;;;;;;4.05;66.79;103689.13;5030834;28;20041;-66
2023/01/24 02:02:06;;;;;;;22.77;17.63;;;;;;;4.05;66.62;103678.13;5046730;28;20608;-65
2023/01/24 02:04:41;;;;;;;22.80;17.88;;;;;;;4.07;66.63;103678.84;5050158;28;20060;-65
2023/01/24 02:07:43;;;;;;;21.92;17.85;;;;;;;4.05;66.39;103679.97;5030905;28;20030;-65
2023/01/24 02:10:10;;;;;;;22.80;18.38;;;;;;;3.97;67.06;103686.22;5046201;28;20033;-65
2023/01/24 02:12:39;;;;;;;22.27;17.85;;;;;;;3.97;66.99;103691.72;5050586;28;20037;-66
2023/01/24 02:17:55;;;;;;;23.15;17.85;;;;;;;4.03;66.90;103691.13;5045354;28;20044;-66
2023/01/24 02:20:37;;;;;;;23.15;18.75;;;;;;;4.03;67.03;103676.53;5050311;28;20033;-66
2023/01/24 02:23:23;;;;;;;23.35;18.60;;;;;;;4.03;67.21;103673.78;5033097;28;20083;-65
2023/01/24 02:26:06;;;;;;;23.58;18.73;;;;;;;3.98;66.74;103676.94;5049982;28;20956;-65
2023/01/24 02:28:33;;;;;;;24.70;18.58;;;;;;;3.86;67.14;103678.06;5036564;28;20090;-65
2023/01/24 02:30:59;;;;;;;24.77;19.27;;;;;;;3.86;67.54;103684.44;5051650;28;20086;-66
2023/01/24 02:33:25;;;;;;;24.25;19.10;;;;;;;3.86;67.64;103683.56;5040399;28;20029;-65
2023/01/24 02:35:50;;;;;;;25.15;19.60;;;;;;;3.88;66.87;103676.03;5048053;28;20064;-65
2023/01/24 02:38:20;;;;;;;26.08;19.70;;;;;;;3.87;67.28;103682.56;5048309;28;20044;-65
2023/01/24 02:40:50;;;;;;;25.90;20.02;;;;;;;3.87;67.16;103682.56;5049736;28;20146;-65
2023/01/24 02:43:17;;;;;;;25.23;19.38;;;;;;;3.86;67.53;103681.69;5048554;28;20025;-65
2023/01/24 02:45:43;;;;;;;27.95;20.08;;;;;;;3.88;67.42;103676.03;5036427;28;20075;-65
2023/01/24 02:48:08;;;;;;;28.30;20.83;;;;;;;3.83;67.85;103672.84;5046377;28;20045;-66
2023/01/24 02:53:31;;;;;;;24.95;19.52;;;;;;;3.87;67.91;103688.03;5050688;28;20040;-65
2023/01/24 02:58:46;;;;;;;26.25;19.95;;;;;;;3.93;68.09;103673.75;5034466;28;20515;-66
2023/01/24 03:01:11;;;;;;;26.33;20.10;;;;;;;3.96;67.83;103680.84;5048495;28;20052;-65
2023/01/24 03:03:37;;;;;;;26.17;20.35;;;;;;;3.96;67.69;103689.94;5043339;28;20037;-65
2023/01/24 03:06:03;;;;;;;26.27;20.17;;;;;;;3.90;67.41;103682.28;5048806;28;20063;-65
2023/01/24 03:08:32;;;;;;;26.98;20.27;;;;;;;3.90;67.42;103685.03;5046954;28;20102;-66
2023/01/24 03:10:57;;;;;;;26.40;20.10;;;;;;;3.89;67.61;103675.91;5049985;28;20053;-65
2023/01/24 03:35:17;;;;;;;26.40;20.45;;;;;;;3.93;68.18;103680.13;5048592;28;20159;-66
2023/01/24 03:40:26;;;;;;;25.90;19.85;;;;;;;3.98;67.75;103659.59;5048868;28;20103;-66
2023/01/24 03:42:52;;;;;;;25.08;19.83;;;;;;;3.97;67.84;103666.97;5049605;28;20094;-66
2023/01/24 03:45:29;;;;;;;25.60;19.20;;;;;;;3.99;67.75;103662.19;5047614;28;20033;-67
2023/01/24 03:47:58;;;;;;;26.77;19.98;;;;;;;3.97;67.35;103657.84;5045004;28;20048;-66
2023/01/24 03:53:14;;;;;;;26.70;20.13;;;;;;;3.94;67.45;103665.38;5049224;28;20111;-66
2023/01/24 03:55:40;;;;;;;25.52;20.25;;;;;;;3.89;67.34;103673.16;5048531;28;20032;-66
2023/01/24 03:58:06;;;;;;;25.02;19.58;;;;;;;3.85;67.54;103674.47;5047235;28;20033;-66
2023/01/24 04:00:32;;;;;;;28.02;20.70;;;;;;;3.84;67.36;103671.84;5046068;28;20083;-66
2023/01/24 04:02:58;;;;;;;26.45;20.50;;;;;;;3.85;67.61;103673.56;5030064;28;20527;-66
2023/01/24 04:05:23;;;;;;;26.85;19.98;;;;;;;3.89;67.39;103666.78;5042033;28;20104;-66
2023/01/24 04:07:49;;;;;;;28.42;20.77;;;;;;;3.92;67.46;103672.88;5040522;28;20040;-66
2023/01/24 04:10:14;;;;;;;28.40;20.67;;;;;;;3.90;67.66;103671.28;5048294;28;20466;-66
2023/01/24 04:12:41;;;;;;;26.73;20.17;;;;;;;3.93;67.62;103682.88;5048161;28;20033;-66
2023/01/24 04:15:07;;;;;;;26.20;19.33;;;;;;;3.91;67.61;103673.88;5047343;28;20499;-66
2023/01/24 04:17:32;;;;;;;24.58;19.05;;;;;;;3.89;67.95;103677.75;5049464;28;20024;-66
2023/01/24 04:19:58;;;;;;;24.35;19.23;;;;;;;3.79;67.21;103672.25;5051776;28;20040;-66
2023/01/24 04:22:23;;;;;;;27.20;20.02;;;;;;;3.78;67.99;103665.03;5050363;28;20074;-65
2023/01/24 04:24:48;;;;;;;26.35;20.27;;;;;;;3.78;67.95;103669.66;5039994;28;20060;-66
2023/01/24 04:27:14;;;;;;;24.23;18.77;;;;;;;3.80;67.31;103667.63;5052422;28;20116;-66
2023/01/24 04:29:40;;;;;;;25.42;18.15;;;;;;;3.76;67.76;103672.53;5050244;28;20039;-65
2023/01/24 04:32:05;;;;;;;28.35;20.35;;;;;;;3.71;67.37;103673.97;5051844;28;20112;-66
2023/01/24 04:34:31;;;;;;;26.05;20.27;;;;;;;3.67;68.08;103674.22;5048968;28;20064;-66
2023/01/24 04:36:56;;;;;;;26.20;20.00;;;;;;;3.70;67.85;103673.09;5049966;28;20025;-66
2023/01/24 04:39:21;;;;;;;26.73;19.77;;;;;;;3.68;67.98;103681.47;5040975;28;20050;-66
2023/01/24 04:41:46;;;;;;;26.80;19.63;;;;;;;3.74;67.55;103685.56;5051201;28;20029;-66
2023/01/24 04:44:12;;;;;;;24.92;19.83;;;;;;;3.76;67.63;103677.16;5050498;28;20463;-66
2023/01/24 04:46:37;;;;;;;24.48;18.48;;;;;;;3.80;68.25;103684.97;5052440;28;20036;-66
2023/01/24 04:49:03;;;;;;;24.80;19.73;;;;;;;3.82;67.99;103676.63;5051016;28;20057;-66
2023/01/24 04:51:28;;;;;;;25.08;19.85;;;;;;;3.80;67.58;103673.97;5052987;28;20107;-65
2023/01/24 04:53:53;;;;;;;25.60;20.40;;;;;;;3.81;67.47;103680.34;5051199;28;20043;-66
2023/01/24 04:56:18;;;;;;;25.77;20.10;;;;;;;3.83;67.76;103681.97;5034267;28;20025;-66
2023/01/24 04:58:44;;;;;;;26.33;19.70;;;;;;;3.79;67.39;103683.25;5049653;28;20037;-66
2023/01/24 05:01:10;;;;;;;25.05;19.63;;;;;;;3.81;67.53;103680.34;5051669;28;20032;-66
2023/01/24 05:03:35;;;;;;;24.77;19.52;;;;;;;3.81;67.48;103680.34;5051723;28;20033;-64
2023/01/24 05:06:01;;;;;;;25.45;19.77;;;;;;;3.82;67.33;103682.09;5051492;28;20037;-64
2023/01/24 05:08:26;;;;;;;25.75;19.90;;;;;;;3.80;67.63;103681.38;5051514;28;20035;-65
2023/01/24 05:10:52;;;;;;;26.40;20.52;;;;;;;3.78;67.55;103680.66;5049983;28;20029;-65
2023/01/24 05:13:17;;;;;;;26.13;20.17;;;;;;;3.74;67.54;103684.69;5039928;28;20530;-65
2023/01/24 05:15:47;;;;;;;25.60;20.40;;;;;;;3.66;67.78;103683.50;5051622;28;20043;-65
2023/01/24 05:18:13;;;;;;;24.45;20.50;;;;;;;3.63;67.91;103683.75;5051204;28;20024;-65
2023/01/24 05:20:38;;;;;;;26.23;19.95;;;;;;;3.63;67.90;103677.41;5051744;28;20050;-65
2023/01/24 05:23:03;;;;;;;24.90;19.75;;;;;;;3.62;68.12;103687.53;5050077;28;20383;-64
2023/01/24 05:25:28;;;;;;;25.73;20.23;;;;;;;3.62;67.69;103693.00;5051136;28;20075;-65
2023/01/24 05:27:54;;;;;;;25.80;20.33;;;;;;;3.63;67.87;103693.88;5051743;28;20144;-65
2023/01/24 05:30:19;;;;;;;25.23;20.50;;;;;;;3.66;68.15;103694.47;5034659;28;20087;-66
2023/01/24 05:32:44;;;;;;;27.63;20.55;;;;;;;3.65;67.95;103692.72;5050835;28;20029;-66
2023/01/24 05:35:10;;;;;;;27.13;20.58;;;;;;;3.67;67.95;103696.22;5051617;28;20031;-65
2023/01/24 05:37:39;;;;;;;24.48;19.35;;;;;;;3.69;67.90;103693.31;5050687;28;20053;-67
2023/01/24 05:40:05;;;;;;;24.98;18.85;;;;;;;3.67;68.21;103695.34;5051564;28;20040;-64
2023/01/24 05:42:31;;;;;;;25.48;19.33;;;;;;;3.69;67.74;103693.31;5051863;28;20338;-64
2023/01/24 05:44:56;;;;;;;25.95;20.55;;;;;;;3.69;67.49;103696.06;5050496;28;20082;-64
2023/01/24 05:47:22;;;;;;;24.23;18.73;;;;;;;3.69;67.77;103699.72;5048313;28;20144;-65
2023/01/24 05:49:47;;;;;;;25.45;19.80;;;;;;;3.69;68.00;103698.81;5030997;28;20091;-65
2023/01/24 05:52:18;;;;;;;24.75;19.15;;;;;;;3.71;68.04;103704.19;5032117;28;20103;-65
2023/01/24 05:54:44;;;;;;;24.48;18.88;;;;;;;3.71;68.00;103705.03;5047189;28;20094;-64
2023/01/24 05:57:09;;;;;;;23.70;18.63;;;;;;;3.75;68.34;103714.75;5050697;28;20373;-64
2023/01/24 05:59:34;;;;;;;25.02;18.92;;;;;;;3.77;67.97;103714.59;5050574;28;20184;-64
2023/01/24 06:01:59;;;;;;;25.10;19.10;;;;;;;3.73;68.17;103721.38;5040841;28;20461;-64
2023/01/24 06:04:25;;;;;;;23.85;18.35;;;;;;;3.73;68.05;103718.63;5049709;28;20037;-64
2023/01/24 06:06:50;;;;;;;23.15;18.67;;;;;;;3.71;67.48;103726.16;5049574;28;20464;-64
2023/01/24 06:09:15;;;;;;;22.95;18.65;;;;;;;3.66;67.49;103727.44;5045164;28;20389;-64
2023/01/24 06:11:40;;;;;;;23.38;17.95;;;;;;;3.66;67.63;103724.69;5044260;28;20039;-64
2023/01/24 06:14:06;;;;;;;22.50;17.83;;;;;;;3.62;68.15;103725.13;5039523;28;20470;-65
2023/01/24 06:16:31;;;;;;;23.40;18.00;;;;;;;3.61;68.40;103726.09;5046829;28;20077;-64
2023/01/24 06:18:56;;;;;;;23.42;18.27;;;;;;;3.64;68.08;103723.94;5041498;28;20380;-64
2023/01/24 06:21:25;;;;;;;23.65;18.92;;;;;;;3.61;68.00;103724.22;5047999;28;20416;-64
2023/01/24 06:23:50;;;;;;;22.33;18.17;;;;;;;3.63;67.99;103722.22;5037162;28;20039;-64
2023/01/24 06:26:16;;;;;;;22.23;18.05;;;;;;;3.66;68.00;103732.94;5042360;28;20038;-64
2023/01/24 06:28:41;;;;;;;22.63;17.80;;;;;;;3.68;68.13;103725.41;5047566;28;20029;-65
2023/01/24 06:31:17;;;;;;;23.25;18.85;;;;;;;3.71;68.90;103731.66;5044428;28;20049;-64
2023/01/24 06:34:00;;;;;;;23.63;18.77;;;;;;;3.71;68.07;103735.25;5048580;28;20083;-64
2023/01/24 06:36:38;;;;;;;24.95;18.35;;;;;;;3.63;67.99;103738.69;5038561;28;20818;-64
2023/01/24 06:39:07;;;;;;;22.92;18.52;;;;;;;3.67;67.87;103739.28;5047375;28;20052;-65
2023/01/24 06:41:33;;;;;;;23.90;18.77;;;;;;;3.59;67.93;103739.97;5047505;28;20448;-64
2023/01/24 06:43:58;;;;;;;22.85;18.17;;;;;;;3.58;68.48;103734.63;5048814;28;20064;-65
2023/01/24 06:46:24;;;;;;;24.60;19.42;;;;;;;3.60;68.66;103741.72;5049786;28;20036;-65
2023/01/24 06:48:49;;;;;;;23.27;18.25;;;;;;;3.61;67.95;103740.69;5047928;28;20113;-65
2023/01/24 06:51:14;;;;;;;25.13;19.92;;;;;;;3.61;68.25;103751.69;5042534;28;20017;-65
2023/01/24 06:53:41;;;;;;;23.90;18.90;;;;;;;3.61;68.20;103740.69;5036253;28;20051;-65
2023/01/24 06:56:07;;;;;;;27.30;20.42;;;;;;;3.61;68.16;103742.56;5048073;28;20484;-65
2023/01/24 06:58:32;;;;;;;23.80;18.38;;;;;;;3.63;68.50;103740.56;5049228;28;20033;-64
2023/01/24 07:00:58;;;;;;;25.27;18.70;;;;;;;3.63;68.22;103733.19;5045101;28;20123;-64
2023/01/24 07:03:23;;;;;;;24.88;19.38;;;;;;;3.64;68.27;103737.69;5042429;28;20045;-61
2023/01/24 07:05:48;;;;;;;25.48;19.83;;;;;;;3.66;68.57;103741.19;5044120;28;20087;-65
2023/01/24 07:08:14;;;;;;;25.20;19.45;;;;;;;3.67;68.31;103745.66;5036386;28;20359;-63
2023/01/24 07:10:39;;;;;;;25.27;19.85;;;;;;;3.61;68.02;103742.56;5045381;28;20035;-65
2023/01/24 07:13:05;;;;;;;25.55;20.08;;;;;;;3.57;68.47;103750.22;5043235;28;20037;-65
2023/01/24 07:15:30;;;;;;;26.40;19.75;;;;;;;3.56;68.62;103753.09;5047202;28;20112;-65
2023/01/24 07:17:55;;;;;;;26.83;20.13;;;;;;;3.56;68.34;103756.72;5048437;28;20082;-65
2023/01/24 07:20:21;;;;;;;24.75;19.58;;;;;;;3.52;68.33;103763.50;5046541;28;20102;-65
2023/01/24 07:22:47;;;;;;;25.52;19.65;;;;;;;3.50;67.87;103759.13;5041242;28;20563;-65
2023/01/24 07:25:20;;;;;;;25.20;19.60;;;;;;;3.47;67.86;103774.00;5032373;28;20380;-65
2023/01/24 07:27:46;;;;;;;22.85;19.33;;;;;;;3.50;67.79;103781.09;5038148;28;20090;-65
2023/01/24 07:30:12;;;;;;;24.50;18.75;;;;;;;3.48;67.83;103777.63;5040498;28;20468;-65
2023/01/24 07:32:38;;;;;;;23.75;18.77;;;;;;;3.49;68.30;103780.22;5046449;28;20039;-65
2023/01/24 07:35:05;;;;;;;24.15;18.63;;;;;;;3.44;67.92;103788.00;5046584;28;20040;-65
2023/01/24 07:37:30;;;;;;;24.35;18.25;;;;;;;3.43;68.33;103786.28;5042897;28;20060;-65
2023/01/24 07:39:55;;;;;;;23.25;18.95;;;;;;;3.44;68.32;103779.78;5040048;28;20029;-66
2023/01/24 07:42:21;;;;;;;23.58;18.67;;;;;;;3.45;68.31;103784.25;5040793;28;20095;-66
2023/01/24 07:44:46;;;;;;;23.48;19.35;;;;;;;3.42;68.20;103784.53;5039527;28;20028;-66
2023/01/24 07:47:11;;;;;;;25.40;18.92;;;;;;;3.39;68.93;103784.81;5033467;28;20124;-67
2023/01/24 07:49:37;;;;;;;24.70;19.25;;;;;;;3.32;67.81;103789.94;5037841;28;20033;-65
2023/01/24 07:52:03;;;;;;;24.13;18.52;;;;;;;3.26;68.60;103793.22;5037037;28;20036;-63
2023/01/24 07:54:29;;;;;;;23.77;18.60;;;;;;;3.20;68.55;103796.50;5041051;28;20041;-63
2023/01/24 07:56:54;;;;;;;24.63;19.30;;;;;;;3.18;68.83;103793.00;5050628;28;20116;-63
2023/01/24 07:59:19;;;;;;;22.20;17.67;;;;;;;3.18;67.87;103799.41;5048368;28;20033;-63
2023/01/24 08:01:45;;;;;;;25.55;19.08;;;;;;;3.20;67.82;103802.00;5032225;28;20039;-65
2023/01/24 08:04:10;;;;;;;24.38;18.90;;;;;;;3.25;68.51;103809.81;5038736;28;20116;-64
2023/01/24 08:06:35;;;;;;;24.65;18.95;;;;;;;3.28;68.18;103802.19;5048884;28;20044;-64
2023/01/24 08:09:02;;;;;;;25.13;19.83;;;;;;;3.31;68.31;103798.34;5048872;28;20025;-65
2023/01/24 08:11:27;;;;;;;25.88;19.48;;;;;;;3.36;68.32;103801.53;5049313;28;20033;-64
2023/01/24 08:13:54;;;;;;;27.77;20.77;;;;;;;3.33;68.00;103808.16;5047239;28;20027;-60
2023/01/24 08:16:25;;;;;;;26.52;20.50;;;;;;;3.42;68.48;103806.50;5051358;28;20131;-66
2023/01/24 08:18:50;;;;;;;26.20;20.02;;;;;;;3.39;68.44;103801.28;5044611;28;20029;-66
2023/01/24 08:21:16;;;;;;;28.55;21.55;;;;;;;3.37;68.38;103804.13;5048441;28;20025;-65
2023/01/24 08:23:41;;;;;;;27.42;19.88;;;;;;;3.39;68.59;103801.28;5058810;28;20410;-66
2023/01/24 08:26:07;;;;;;;28.55;20.73;;;;;;;3.39;68.47;103804.03;5058836;28;20013;-66
2023/01/24 08:28:35;;;;;;;27.50;20.60;;;;;;;3.42;68.29;103806.50;5047910;28;20029;-69
2023/01/24 08:31:03;;;;;;;27.38;21.13;;;;;;;3.40;68.42;103803.88;5055413;28;20534;-72
2023/01/24 08:33:29;;;;;;;28.88;20.83;;;;;;;3.42;67.51;103799.13;5049636;28;20369;-67
2023/01/24 08:35:54;;;;;;;26.27;19.67;;;;;;;3.41;68.21;103804.75;5042443;28;20036;-67
2023/01/24 08:38:20;;;;;;;29.40;20.98;;;;;;;3.32;68.06;103816.53;5034317;28;20049;-69
2023/01/24 08:40:45;;;;;;;27.73;19.95;;;;;;;3.27;67.91;103816.06;5039131;28;20061;-67
2023/01/24 08:43:10;;;;;;;27.88;19.83;;;;;;;3.21;67.74;103825.69;5053458;28;20033;-68
2023/01/24 08:45:35;;;;;;;26.42;19.83;;;;;;;3.24;67.84;103824.56;5053198;28;20074;-68
2023/01/24 08:48:01;;;;;;;26.42;19.65;;;;;;;3.24;68.01;103819.06;5053239;28;20029;-68
2023/01/24 08:50:27;;;;;;;27.48;20.05;;;;;;;3.27;68.02;103827.06;5053442;28;20033;-67
2023/01/24 08:52:56;;;;;;;26.75;20.65;;;;;;;3.22;67.89;103827.41;5052736;28;20366;-68
2023/01/24 08:55:23;;;;;;;27.75;20.38;;;;;;;3.24;67.93;103830.06;5048931;28;20029;-68
2023/01/24 08:57:48;;;;;;;26.75;20.63;;;;;;;3.27;68.18;103827.91;5034153;28;20025;-68
2023/01/24 09:00:14;;;;;;;25.42;18.55;;;;;;;3.31;67.72;103831.28;5052559;28;20040;-68
2023/01/24 09:02:39;;;;;;;25.88;19.50;;;;;;;3.33;67.19;103840.22;5050947;28;20437;-68
2023/01/24 09:05:06;;;;;;;26.08;19.13;;;;;;;3.33;67.77;103842.97;5050679;28;20033;-68
2023/01/24 09:07:32;;;;;;;26.15;19.50;;;;;;;3.32;67.52;103841.25;5045202;28;20025;-68
2023/01/24 09:09:57;;;;;;;26.13;19.00;;;;;;;3.36;67.48;103845.47;5052347;28;20025;-68
2023/01/24 09:12:22;;;;;;;26.02;19.85;;;;;;;3.34;67.60;103844.72;5051953;28;20036;-68
2023/01/24 09:14:47;;;;;;;25.92;19.45;;;;;;;3.31;67.20;103845.00;5039578;28;20155;-68
2023/01/24 09:17:16;;;;;;;26.38;19.17;;;;;;;3.31;67.62;103845.00;5052120;28;20078;-68
2023/01/24 09:19:41;;;;;;;27.30;19.67;;;;;;;3.27;67.49;103838.03;5052198;28;20058;-67
2023/01/24 09:22:06;;;;;;;25.63;18.67;;;;;;;3.29;67.60;103841.50;5048867;28;20108;-68
2023/01/24 09:24:32;;;;;;;25.42;19.42;;;;;;;3.27;67.67;103846.28;5044108;28;20025;-66
2023/01/24 09:26:57;;;;;;;27.02;19.98;;;;;;;3.16;67.51;103841.69;5045364;28;20484;-66
2023/01/24 09:29:22;;;;;;;28.88;20.85;;;;;;;3.13;68.34;103840.06;5049747;28;20068;-66
2023/01/24 09:31:48;;;;;;;27.40;19.33;;;;;;;3.16;68.15;103838.94;5052111;28;20495;-68
2023/01/24 09:34:14;;;;;;;28.33;20.23;;;;;;;3.18;68.48;103843.31;5049346;28;20037;-69
2023/01/24 09:36:39;;;;;;;29.75;20.88;;;;;;;3.23;68.08;103844.78;5043363;28;20070;-68
2023/01/24 09:39:05;;;;;;;24.25;19.38;;;;;;;3.26;68.19;103839.88;5033846;28;20053;-69
2023/01/24 09:41:45;;;;;;;25.75;19.42;;;;;;;3.32;68.54;103842.13;5031621;28;20032;-68
2023/01/24 09:44:21;;;;;;;30.20;20.00;;;;;;;3.32;68.42;103846.72;5049325;28;20060;-70
2023/01/24 09:46:51;;;;;;;26.95;19.70;;;;;;;3.28;67.81;103842.50;5050009;28;20056;-68
2023/01/24 09:49:19;;;;;;;27.63;19.58;;;;;;;3.29;68.08;103847.00;5048754;28;20127;-66
2023/01/24 09:51:50;;;;;;;25.70;19.17;;;;;;;3.24;67.95;103852.00;5044212;28;20067;-66
2023/01/24 09:54:24;;;;;;;27.42;19.83;;;;;;;3.23;68.01;103850.28;5047357;28;20040;-68
2023/01/24 09:56:49;;;;;;;26.38;19.40;;;;;;;3.19;67.79;103855.16;5042537;28;20029;-68
2023/01/24 09:59:43;;;;;;;27.10;19.27;;;;;;;3.20;68.21;103851.41;5051353;28;20033;-69
2023/01/24 10:02:20;;;;;;;27.98;20.00;;;;;;;3.27;68.24;103854.50;5048805;28;20043;-70
2023/01/24 10:04:49;;;;;;;26.50;18.98;;;;;;;3.28;67.85;103850.75;5040881;28;20033;-67
2023/01/24 10:07:32;;;;;;;28.05;18.50;;;;;;;3.35;67.87;103862.94;5043106;28;20086;-69
2023/01/24 10:10:00;;;;;;;24.17;17.92;;;;;;;3.35;67.79;103858.31;5042692;28;20025;-70
2023/01/24 10:13:02;;;;;;;23.65;17.55;;;;;;;3.36;67.98;103862.81;5042445;28;20385;-69
2023/01/24 10:15:52;;;;;;;23.75;17.35;;;;;;;3.29;66.87;103860.72;5049267;28;20396;-71
2023/01/24 10:18:40;;;;;;;21.90;16.75;;;;;;;3.28;67.44;103864.47;5047498;28;20064;-69
2023/01/24 10:21:17;;;;;;;22.98;17.08;;;;;;;3.28;66.84;103864.47;5044023;28;20037;-70
2023/01/24 10:23:52;;;;;;;24.23;17.67;;;;;;;3.30;66.90;103859.72;5041881;28;20033;-68
2023/01/24 10:26:20;;;;;;;22.25;17.45;;;;;;;3.28;66.60;103870.84;5045115;28;20111;-72
2023/01/24 10:28:52;;;;;;;22.85;16.83;;;;;;;3.29;66.93;103864.31;5039418;28;20033;-71
2023/01/24 10:31:39;;;;;;;21.63;16.13;;;;;;;3.33;67.10;103862.19;5044095;28;20035;-72
2023/01/24 10:34:28;;;;;;;23.25;16.75;;;;;;;3.36;66.99;103861.94;5033303;28;20037;-76
2023/01/24 10:36:58;;;;;;;23.83;17.25;;;;;;;3.32;66.88;103865.94;5036794;28;20033;-64
2023/01/24 10:39:25;;;;;;;21.00;16.15;;;;;;;3.35;66.77;103861.06;5047172;28;20025;-69
2023/01/24 10:41:51;;;;;;;23.00;16.00;;;;;;;3.37;67.10;103858.19;5048133;28;20104;-70
2023/01/24 10:44:27;;;;;;;21.67;16.00;;;;;;;3.42;67.13;103862.28;5039691;28;20025;-70
2023/01/24 10:47:26;;;;;;;21.77;16.42;;;;;;;3.49;66.78;103859.88;5030202;28;20029;-70
2023/01/24 10:49:58;;;;;;;22.27;16.55;;;;;;;3.43;67.02;103861.28;5047960;28;20447;-71
2023/01/24 10:52:29;;;;;;;22.23;17.15;;;;;;;3.46;66.83;103857.41;5049140;28;20013;-70
2023/01/24 10:55:01;;;;;;;23.23;17.13;;;;;;;3.49;66.89;103856.25;5048942;28;20099;-71
2023/01/24 10:57:37;;;;;;;23.13;15.98;;;;;;;3.50;66.25;103858.00;5049257;28;20021;-71
2023/01/24 11:00:08;;;;;;;21.13;16.17;;;;;;;3.45;65.89;103850.16;5032107;28;20037;-71
2023/01/24 11:02:37;;;;;;;21.60;15.82;;;;;;;3.44;66.56;103848.41;5042183;28;20028;-71
2023/01/24 11:05:05;;;;;;;21.65;16.02;;;;;;;3.45;66.48;103858.38;5046129;28;20083;-70
2023/01/24 11:07:33;;;;;;;20.65;16.02;;;;;;;3.44;66.41;103849.28;5046127;28;20532;-70
2023/01/24 11:10:00;;;;;;;20.35;15.45;;;;;;;3.44;66.54;103856.66;5035456;28;20029;-66
2023/01/24 11:12:27;;;;;;;20.33;15.50;;;;;;;3.41;65.82;103844.06;5042792;28;20210;-65
2023/01/24 11:14:55;;;;;;;22.45;16.10;;;;;;;3.42;65.70;103839.47;5042621;28;20040;-67
2023/01/24 11:17:31;;;;;;;21.15;15.88;;;;;;;3.43;66.12;103847.56;5048301;28;20111;-67
2023/01/24 11:20:01;;;;;;;21.35;15.90;;;;;;;3.44;66.10;103843.78;5041930;28;20037;-63
2023/01/24 11:22:34;;;;;;;21.15;15.77;;;;;;;3.45;65.54;103844.66;5044588;28;20074;-70
2023/01/24 11:25:03;;;;;;;21.85;16.40;;;;;;;3.44;65.71;103841.03;5047887;28;20033;-69
2023/01/24 11:27:29;;;;;;;19.83;15.13;;;;;;;3.44;65.31;103838.31;5048373;28;20112;-71
2023/01/24 11:30:15;;;;;;;20.98;16.38;;;;;;;3.42;66.09;103831.22;5026876;28;20032;-70
2023/01/24 11:32:59;;;;;;;20.08;15.30;;;;;;;3.47;66.22;103831.69;5049667;28;20063;-68
2023/01/24 11:35:30;;;;;;;21.80;15.35;;;;;;;3.44;66.12;103832.81;5050733;28;20048;-70
2023/01/24 11:38:05;;;;;;;22.08;15.50;;;;;;;3.47;65.87;103820.69;5047664;28;20392;-67
2023/01/24 11:40:52;;;;;;;20.35;15.13;;;;;;;3.51;66.15;103824.06;5050359;28;20094;-69
2023/01/24 11:43:26;;;;;;;20.45;15.27;;;;;;;3.48;65.27;103830.66;5039856;28;20124;-69
2023/01/24 11:46:22;;;;;;;19.75;15.50;;;;;;;3.47;65.78;103815.22;5047496;28;20033;-71
2023/01/24 11:49:12;;;;;;;21.42;15.63;;;;;;;3.49;65.62;103820.56;5030781;28;20436;-73
2023/01/24 11:51:48;;;;;;;20.73;15.70;;;;;;;3.50;65.67;103814.06;5049358;28;20067;-73
2023/01/24 11:54:44;;;;;;;21.95;16.52;;;;;;;3.53;66.17;103822.91;5044154;28;20029;-73
2023/01/24 11:57:34;;;;;;;20.55;15.25;;;;;;;3.50;65.86;103812.19;5048798;28;20035;-73
2023/01/24 12:00:14;;;;;;;20.75;15.43;;;;;;;3.52;65.52;103815.66;5046705;28;20503;-73
2023/01/24 12:03:14;;;;;;;21.85;15.65;;;;;;;3.54;66.13;103813.69;5045931;28;20036;-71